Time;durP1;ratioP1;P1;durP2;ratioP2;P2;SDS_P1;SDS_P2;PMS_P1;PMS_P2;Temp;Humidity;BMP_temperature;BMP_pressure;BME280_temperature;BME280_humidity;BME280_pressure;Samples;Min_cycle;Max_cycle;Signal;HPM_P1;HPM_P2
2021/04/12 01:30:19;;;;;;;;;;;;;;;;;;;;;
2021/04/12 02:55:13;;;;;;;;;;;;;;;;;;;;;
2021/04/12 03:16:15;;;;;;;;;;;;;;;;;;;;;
2021/04/12 03:22:48;;;;;;;0.90;0.80;;;22.00;50.30;;;;;;4854939;29;20448;-83
2021/04/12 04:34:24;;;;;;;;;;;;;;;;;;;;;
2021/04/12 04:53:56;;;;;;;0.90;0.70;;;21.90;50.30;;;;;;5025458;28;20945;-82
2021/04/12 04:56:43;;;;;;;1.20;0.80;;;22.00;50.30;;;;;;5009858;28;20956;-82
2021/04/12 04:59:21;;;;;;;1.00;0.70;;;22.00;50.40;;;;;;5008446;28;20591;-86
2021/04/12 05:40:34;;;;;;;1.10;0.80;;;22.10;50.20;;;;;;4907448;29;20789;-84
2021/04/12 05:44:05;;;;;;;;;;;;;;;;;;;;;
2021/04/12 05:57:18;;;;;;;1.30;0.70;;;22.10;50.10;;;;;;4929641;28;20514;-83
2021/04/12 06:00:17;;;;;;;0.87;0.67;;;22.10;50.10;;;;;;4927694;29;20422;-82
2021/04/12 06:07:12;;;;;;;;;;;;;;;;;;;;;
2021/04/12 07:19:13;;;;;;;;;;;;;;;;;;;;;
2021/04/12 07:32:59;;;;;;;2.07;1.30;;;22.40;49.90;;;;;;4886547;29;20521;-85
2021/04/12 07:59:58;;;;;;;;;;;;;;;;;;;;;
2021/04/12 08:16:55;;;;;;;1.17;0.80;;;22.70;50.00;;;;;;4932900;28;20435;-85
2021/04/12 08:30:42;;;;;;;;;;;;;;;;;;;;;
2021/04/12 08:43:40;;;;;;;1.90;1.00;;;22.80;50.00;;;;;;4964155;28;20405;-85
2021/04/12 09:14:00;;;;;;;2.40;1.60;;;22.90;50.00;;;;;;4911353;29;20412;-83
2021/04/12 09:17:05;;;;;;;2.63;1.20;;;22.80;50.00;;;;;;4918344;29;20425;-83
2021/04/12 09:20:11;;;;;;;2.43;1.10;;;22.90;50.00;;;;;;4905511;29;20449;-82
2021/04/12 09:23:22;;;;;;;1.97;1.13;;;22.90;50.00;;;;;;4905577;29;20422;-83
2021/04/12 09:32:59;;;;;;;3.53;1.20;;;22.90;50.00;;;;;;4926786;29;20423;-85
2021/04/12 09:36:13;;;;;;;1.30;1.00;;;23.00;50.30;;;;;;4947592;29;20392;-84
2021/04/12 09:42:32;;;;;;;4.37;1.27;;;23.00;50.10;;;;;;4966296;29;20801;-85
2021/04/12 09:45:34;;;;;;;2.23;0.97;;;23.00;50.10;;;;;;4983113;28;20417;-84
2021/04/12 09:49:09;;;;;;;2.40;1.07;;;23.00;50.10;;;;;;4985920;28;20465;-85
2021/04/12 10:13:40;;;;;;;2.33;1.10;;;23.10;49.90;;;;;;4802444;30;20401;-85
2021/04/12 11:04:24;;;;;;;2.80;1.70;;;23.00;48.80;;;;;;4964687;29;20394;-90
2021/04/12 11:07:36;;;;;;;2.50;1.50;;;22.80;48.80;;;;;;5023694;28;20457;-88
2021/04/12 11:21:16;;;;;;;2.90;1.50;;;23.00;49.10;;;;;;4892069;29;20495;-88
2021/04/12 12:43:02;;;;;;;11.83;10.83;;;22.70;49.60;;;;;;4834330;29;20674;-88
2021/04/12 12:52:32;;;;;;;12.80;11.50;;;22.70;49.60;;;;;;4835779;29;20452;-87
2021/04/12 12:55:02;;;;;;;12.10;10.90;;;22.70;49.60;;;;;;4863079;29;20418;-87
2021/04/12 12:57:42;;;;;;;15.27;13.80;;;22.70;49.70;;;;;;4857597;29;20419;-86
2021/04/12 13:00:17;;;;;;;14.97;13.43;;;22.70;49.60;;;;;;4855989;29;20406;-87
2021/04/12 13:19:25;;;;;;;16.67;14.13;;;22.70;49.60;;;;;;4885834;29;20409;-86
2021/04/12 13:46:32;;;;;;;14.67;13.27;;;22.60;49.60;;;;;;4608574;31;20500;-87
2021/04/12 13:56:06;;;;;;;14.03;12.70;;;22.70;49.70;;;;;;4675787;30;20419;-87
2021/04/12 13:58:37;;;;;;;13.80;12.50;;;22.60;50.00;;;;;;4673798;30;20460;-86
2021/04/12 14:01:35;;;;;;;15.17;12.00;;;22.70;49.70;;;;;;4673537;30;20425;-86
2021/04/12 14:04:10;;;;;;;14.87;13.30;;;22.70;49.60;;;;;;4705323;30;20434;-86
2021/04/12 14:07:24;;;;;;;;;;;;;;;;;;;;;
2021/04/12 14:17:08;;;;;;;12.70;11.33;;;22.70;49.60;;;;;;5018977;28;20405;-85
2021/04/12 14:23:40;;;;;;;;;;;;;;;;;;;;;
2021/04/12 14:36:26;;;;;;;12.20;11.07;;;22.70;49.70;;;;;;4969284;29;20377;-84
2021/04/12 14:39:12;;;;;;;11.27;10.13;;;22.70;49.70;;;;;;4953398;29;20406;-86
2021/04/12 14:41:45;;;;;;;11.37;10.30;;;22.90;49.80;;;;;;4952990;29;20406;-83
2021/04/12 14:44:20;;;;;;;12.40;11.20;;;22.80;49.80;;;;;;4954057;29;20414;-84
2021/04/12 14:46:48;;;;;;;11.40;10.17;;;22.70;49.80;;;;;;4971250;29;20457;-83
2021/04/12 14:59:02;;;;;;;11.03;10.13;;;22.70;49.60;;;;;;4982816;28;20420;-84
2021/04/12 15:01:47;;;;;;;11.83;10.20;;;22.70;49.70;;;;;;4977609;28;20413;-84
2021/04/12 15:04:27;;;;;;;10.20;9.20;;;22.70;49.70;;;;;;4978628;28;20437;-84
2021/04/12 15:07:11;;;;;;;10.77;9.70;;;22.70;50.20;;;;;;5041897;28;20462;-84
2021/04/12 15:09:55;;;;;;;11.83;10.73;;;22.70;49.60;;;;;;5052520;28;20414;-84
2021/04/12 15:12:25;;;;;;;12.50;10.07;;;22.70;49.60;;;;;;5052200;28;20407;-84
2021/04/12 15:15:09;;;;;;;10.70;9.67;;;22.70;49.80;;;;;;5056301;28;20437;-84
2021/04/12 15:17:41;;;;;;;11.53;9.20;;;22.70;49.70;;;;;;5054261;28;20418;-84
2021/04/12 15:20:18;;;;;;;10.60;9.53;;;22.70;49.70;;;;;;5051935;28;20425;-84
2021/04/12 15:22:58;;;;;;;10.03;9.10;;;22.70;49.70;;;;;;5048997;28;20970;-83
2021/04/12 15:25:33;;;;;;;10.33;9.10;;;22.70;49.60;;;;;;5049301;28;20528;-83
2021/04/12 15:28:19;;;;;;;9.57;8.70;;;22.60;49.60;;;;;;5049590;28;20446;-84
2021/04/12 15:30:58;;;;;;;10.50;9.40;;;22.70;49.70;;;;;;5065775;28;20428;-83
2021/04/12 15:33:27;;;;;;;10.83;9.70;;;22.70;49.60;;;;;;5069063;28;20409;-83
2021/04/12 15:35:59;;;;;;;10.90;9.80;;;22.60;49.60;;;;;;5069049;28;20429;-83
2021/04/12 15:38:45;;;;;;;10.63;9.60;;;22.60;49.70;;;;;;5068555;28;20406;-84
2021/04/12 15:41:20;;;;;;;9.77;8.83;;;22.70;49.60;;;;;;5068716;28;20418;-84
2021/04/12 15:43:49;;;;;;;8.93;8.13;;;22.60;49.70;;;;;;5067373;28;20409;-84
2021/04/12 15:46:30;;;;;;;10.60;9.67;;;22.60;49.60;;;;;;5068360;28;20422;-83
2021/04/12 15:49:23;;;;;;;10.20;9.30;;;22.60;49.60;;;;;;5069549;28;20393;-84
2021/04/12 15:51:53;;;;;;;9.83;8.67;;;22.60;49.60;;;;;;5068188;28;20418;-84
2021/04/12 15:54:32;;;;;;;9.67;8.77;;;22.60;49.80;;;;;;5068378;28;20443;-83
2021/04/12 15:57:17;;;;;;;9.90;8.90;;;22.50;49.60;;;;;;5069720;28;20409;-83
2021/04/12 15:59:56;;;;;;;8.80;8.00;;;22.60;49.60;;;;;;5084318;28;20529;-83
2021/04/12 16:02:31;;;;;;;9.60;8.70;;;22.60;49.70;;;;;;5089284;28;20396;-84
2021/04/12 16:05:19;;;;;;;9.70;8.90;;;22.60;49.60;;;;;;5071499;28;20504;-84
2021/04/12 16:08:07;;;;;;;10.00;9.00;;;22.60;49.60;;;;;;5071244;28;20455;-84
2021/04/12 16:10:44;;;;;;;9.37;8.47;;;22.60;49.60;;;;;;5088967;28;20485;-83
2021/04/12 16:13:35;;;;;;;9.03;8.17;;;22.60;49.60;;;;;;5089467;28;20428;-84
2021/04/12 16:16:05;;;;;;;8.30;7.57;;;22.60;49.70;;;;;;5071535;28;20408;-83
2021/04/12 16:18:59;;;;;;;9.03;8.23;;;22.60;49.80;;;;;;5089106;28;20385;-84
2021/04/12 16:21:30;;;;;;;8.83;8.03;;;22.60;49.70;;;;;;5088989;28;20484;-83
2021/04/12 16:24:28;;;;;;;9.23;8.27;;;22.50;49.70;;;;;;5088944;28;20408;-83
2021/04/12 16:27:08;;;;;;;8.93;8.13;;;22.60;49.70;;;;;;5071895;28;20550;-84
2021/04/12 16:30:04;;;;;;;8.70;7.80;;;22.50;49.60;;;;;;5088229;28;20411;-82
2021/04/12 16:32:40;;;;;;;9.20;8.40;;;22.50;49.70;;;;;;5070504;28;20484;-83
2021/04/12 16:35:17;;;;;;;8.27;7.47;;;22.50;49.70;;;;;;5088451;28;20446;-83
2021/04/12 16:55:04;;;;;;;7.97;7.27;;;22.60;49.80;;;;;;4938873;28;20423;-83
2021/04/12 16:57:46;;;;;;;8.83;7.93;;;22.50;49.80;;;;;;4939384;29;20427;-83
2021/04/12 17:00:57;;;;;;;10.77;8.77;;;22.50;49.90;;;;;;4952750;29;20442;-82
2021/04/12 17:04:04;;;;;;;9.63;8.27;;;22.50;49.80;;;;;;4933640;29;20435;-82
2021/04/12 17:06:55;;;;;;;9.00;8.20;;;22.40;49.70;;;;;;4946623;29;20458;-82
2021/04/12 17:12:14;;;;;;;8.77;7.90;;;22.50;49.90;;;;;;4946792;29;20422;-82
2021/04/12 17:15:24;;;;;;;8.00;7.27;;;22.50;50.20;;;;;;4932565;29;20447;-84
2021/04/12 17:17:52;;;;;;;8.17;7.43;;;22.50;49.90;;;;;;4948280;29;20446;-84
2021/04/12 17:20:47;;;;;;;8.63;7.83;;;22.40;49.70;;;;;;4959034;28;20417;-84
2021/04/12 17:23:25;;;;;;;8.00;7.20;;;22.40;49.60;;;;;;4989573;28;20421;-84
2021/04/12 17:26:01;;;;;;;8.00;7.30;;;22.50;49.80;;;;;;4988112;28;20423;-85
2021/04/12 17:28:53;;;;;;;7.67;6.87;;;22.50;49.90;;;;;;5062292;28;20471;-84
2021/04/12 17:31:31;;;;;;;7.80;7.03;;;22.50;49.70;;;;;;5060865;28;20401;-86
2021/04/12 17:34:27;;;;;;;7.30;6.60;;;22.40;49.90;;;;;;5046578;28;20424;-83
2021/04/12 17:37:06;;;;;;;7.60;6.90;;;22.50;49.70;;;;;;5053214;28;20413;-84
2021/04/12 17:39:40;;;;;;;8.37;7.63;;;22.50;49.80;;;;;;5057732;28;20511;-83
2021/04/12 17:42:28;;;;;;;7.33;6.73;;;22.40;49.80;;;;;;5061082;28;20417;-84
2021/04/12 17:45:23;;;;;;;7.87;7.17;;;22.40;49.70;;;;;;5055388;28;20532;-85
2021/04/12 17:47:52;;;;;;;7.53;6.70;;;22.40;49.60;;;;;;5052322;28;20647;-83
2021/04/12 17:50:20;;;;;;;7.57;6.87;;;22.40;49.80;;;;;;5052606;28;20421;-83
2021/04/12 17:52:50;;;;;;;7.53;6.83;;;22.40;49.70;;;;;;5070561;28;20777;-83
2021/04/12 17:55:32;;;;;;;7.47;6.77;;;22.40;49.70;;;;;;5051850;28;20413;-83
2021/04/12 17:58:22;;;;;;;7.17;6.50;;;22.50;49.70;;;;;;5054822;28;20485;-83
2021/04/12 18:00:51;;;;;;;7.03;6.40;;;22.50;49.70;;;;;;5067221;28;20441;-83
2021/04/12 18:03:26;;;;;;;8.40;7.17;;;22.40;49.70;;;;;;5065563;28;20420;-83
2021/04/12 18:05:58;;;;;;;7.03;6.43;;;22.50;49.80;;;;;;5077419;28;20434;-83
2021/04/12 18:08:40;;;;;;;8.17;6.53;;;22.40;50.00;;;;;;5071001;28;20483;-83
2021/04/12 18:11:17;;;;;;;8.10;7.40;;;22.50;49.90;;;;;;5086938;28;20519;-83
2021/04/12 18:13:58;;;;;;;7.97;7.23;;;22.50;49.70;;;;;;5070855;28;20411;-83
2021/04/12 18:16:37;;;;;;;7.30;6.70;;;22.50;49.80;;;;;;5075111;28;20507;-83
2021/04/12 18:19:10;;;;;;;7.40;6.70;;;22.40;49.70;;;;;;5066254;28;20413;-83
2021/04/12 18:21:43;;;;;;;7.00;6.10;;;22.40;49.60;;;;;;5069311;28;20512;-84
2021/04/12 18:24:20;;;;;;;6.93;6.33;;;22.70;50.00;;;;;;5074160;28;20408;-84
2021/04/12 18:26:49;;;;;;;6.60;6.00;;;22.50;49.80;;;;;;5074099;28;20472;-83
2021/04/12 18:29:39;;;;;;;7.50;6.80;;;22.40;49.60;;;;;;5076741;28;20439;-83
2021/04/12 18:32:22;;;;;;;6.77;6.17;;;22.50;49.70;;;;;;5082987;28;20408;-84
2021/04/12 18:35:38;;;;;;;7.37;6.67;;;22.50;50.30;;;;;;5075399;28;20788;-84
2021/04/12 18:38:12;;;;;;;6.50;5.90;;;22.50;49.70;;;;;;5053187;28;20429;-87
2021/04/12 18:40:55;;;;;;;6.50;5.90;;;22.40;49.70;;;;;;5069559;28;20472;-83
2021/04/12 18:43:33;;;;;;;7.20;6.50;;;22.40;49.70;;;;;;5074029;28;20417;-83
2021/04/12 18:46:32;;;;;;;6.40;5.80;;;22.40;49.70;;;;;;5088123;28;20434;-82
2021/04/12 18:49:27;;;;;;;6.20;5.70;;;22.40;49.60;;;;;;5063887;28;20422;-82
2021/04/12 18:52:04;;;;;;;6.70;6.10;;;22.40;49.60;;;;;;4981986;28;20440;-82
2021/04/12 18:54:38;;;;;;;6.53;5.67;;;22.40;49.70;;;;;;4997916;28;20394;-83
2021/04/12 18:57:25;;;;;;;6.37;5.77;;;22.30;49.60;;;;;;4977474;28;20452;-83
2021/04/12 19:00:19;;;;;;;6.63;5.57;;;22.40;49.70;;;;;;4987534;28;20449;-82
2021/04/12 19:03:16;;;;;;;7.90;6.73;;;22.50;49.80;;;;;;4975557;28;20429;-84
2021/04/12 19:06:07;;;;;;;6.53;5.93;;;22.50;49.80;;;;;;4994813;28;20420;-84
2021/04/12 19:08:47;;;;;;;6.30;5.70;;;22.50;49.70;;;;;;4996290;28;20534;-84
2021/04/12 19:12:05;;;;;;;6.23;5.63;;;22.50;49.80;;;;;;5002278;28;20468;-84
2021/04/12 19:14:40;;;;;;;6.53;5.93;;;22.50;49.80;;;;;;4988322;28;20471;-84
2021/04/12 19:17:30;;;;;;;5.47;4.97;;;22.40;49.80;;;;;;4996433;28;20544;-84
2021/04/12 19:20:10;;;;;;;5.43;4.73;;;22.50;49.80;;;;;;5003747;28;20412;-85
2021/04/12 19:22:39;;;;;;;5.33;4.83;;;22.50;49.80;;;;;;4997151;28;20432;-84
2021/04/12 19:25:14;;;;;;;4.93;4.50;;;22.50;49.80;;;;;;5003254;28;20463;-84
2021/04/12 19:28:07;;;;;;;5.87;5.37;;;22.50;49.80;;;;;;5000165;28;20455;-84
2021/04/12 19:30:58;;;;;;;6.27;5.17;;;22.50;49.70;;;;;;5074948;28;20421;-87
2021/04/12 19:33:29;;;;;;;4.97;4.57;;;22.50;49.70;;;;;;5070345;28;20448;-89
2021/04/12 19:36:02;;;;;;;6.20;5.60;;;22.50;49.80;;;;;;5101923;28;20957;-90
2021/04/12 19:38:59;;;;;;;6.23;5.10;;;22.50;49.80;;;;;;5068805;28;20424;-90
2021/04/12 19:41:48;;;;;;;7.93;5.07;;;22.60;49.80;;;;;;5073157;28;20416;-89
2021/04/12 19:44:23;;;;;;;5.27;4.73;;;22.60;49.80;;;;;;5069331;28;20401;-91
2021/04/12 19:47:10;;;;;;;5.50;5.00;;;22.50;49.70;;;;;;5069827;28;20969;-90
2021/04/12 19:50:00;;;;;;;5.03;4.50;;;22.50;49.70;;;;;;5073889;28;20738;-90
2021/04/12 19:55:54;;;;;;;5.90;4.83;;;22.50;49.70;;;;;;5081443;28;21174;-89
2021/04/12 19:58:32;;;;;;;5.30;4.80;;;22.50;49.70;;;;;;5060478;28;20434;-89
2021/04/12 20:01:04;;;;;;;4.97;4.43;;;22.50;49.70;;;;;;5100448;28;20416;-90
2021/04/12 20:03:50;;;;;;;4.80;4.40;;;22.50;50.30;;;;;;5078133;28;20492;-89
2021/04/12 20:06:24;;;;;;;5.20;4.80;;;22.50;49.60;;;;;;5066320;28;20549;-90
2021/04/12 20:09:01;;;;;;;7.43;4.73;;;22.50;49.70;;;;;;5070961;28;20438;-90
2021/04/12 20:11:36;;;;;;;4.83;4.33;;;22.50;49.70;;;;;;5069066;28;20428;-89
2021/04/12 20:14:27;;;;;;;6.30;5.70;;;22.50;49.70;;;;;;5059537;28;20404;-90
2021/04/12 20:17:17;;;;;;;4.47;4.07;;;22.50;49.60;;;;;;5078628;28;20583;-89
2021/04/12 20:20:07;;;;;;;4.63;4.23;;;22.50;49.70;;;;;;5065727;28;20429;-89
2021/04/12 20:23:02;;;;;;;4.57;4.17;;;22.50;49.70;;;;;;5076866;28;20573;-89
2021/04/12 20:25:38;;;;;;;4.87;4.47;;;22.50;49.70;;;;;;5103652;28;20937;-89
2021/04/12 20:28:36;;;;;;;4.83;4.40;;;22.50;49.80;;;;;;5095002;28;20460;-89
2021/04/12 20:31:16;;;;;;;4.23;3.83;;;22.50;49.80;;;;;;5067031;28;20761;-90
2021/04/12 20:33:53;;;;;;;4.83;4.33;;;22.40;49.70;;;;;;5061173;28;20634;-90
2021/04/12 20:36:51;;;;;;;5.13;4.70;;;22.50;49.80;;;;;;5075353;28;20427;-90
2021/04/12 20:39:35;;;;;;;4.53;4.13;;;22.40;49.70;;;;;;5089522;28;20428;-90
2021/04/12 20:42:19;;;;;;;4.33;3.93;;;22.40;49.70;;;;;;5076144;28;20504;-90
2021/04/12 20:45:09;;;;;;;5.37;4.20;;;22.50;49.80;;;;;;5075706;28;20436;-89
2021/04/12 20:47:57;;;;;;;4.60;3.73;;;22.50;49.80;;;;;;5068081;28;20459;-90
2021/04/12 20:50:23;;;;;;;4.47;4.07;;;22.40;49.70;;;;;;5085326;28;20565;-89
2021/04/12 20:52:51;;;;;;;6.03;4.20;;;22.40;49.80;;;;;;5067577;28;20424;-89
2021/04/12 20:55:23;;;;;;;5.20;3.73;;;22.40;49.70;;;;;;5082478;28;20238;-90
2021/04/12 20:58:13;;;;;;;4.13;3.83;;;22.40;49.70;;;;;;5083527;28;20417;-88
2021/04/12 21:00:42;;;;;;;4.20;3.83;;;22.40;49.70;;;;;;5065339;28;20827;-90
2021/04/12 21:03:18;;;;;;;4.33;3.30;;;22.40;49.70;;;;;;5087349;28;20408;-89
2021/04/12 21:05:45;;;;;;;4.70;4.30;;;22.40;49.70;;;;;;5084060;28;20416;-90
2021/04/12 21:08:29;;;;;;;4.83;3.93;;;22.40;49.70;;;;;;5086019;28;20480;-86
2021/04/12 21:11:20;;;;;;;4.50;4.10;;;22.50;49.70;;;;;;5086610;28;20412;-86
2021/04/12 21:14:08;;;;;;;4.97;3.40;;;22.50;49.80;;;;;;5104722;28;20432;-86
2021/04/12 21:16:36;;;;;;;4.03;3.63;;;22.40;49.70;;;;;;5093066;28;20417;-85
2021/04/12 21:19:36;;;;;;;5.67;4.17;;;22.40;49.70;;;;;;5073088;28;20412;-85
2021/04/12 21:22:27;;;;;;;3.93;3.53;;;22.50;49.80;;;;;;5069556;28;20997;-85
2021/04/12 21:25:16;;;;;;;4.73;4.27;;;22.50;49.70;;;;;;5070583;28;20463;-85
2021/04/12 21:28:20;;;;;;;4.10;3.70;;;22.50;49.80;;;;;;5068593;28;20488;-85
2021/04/12 21:31:16;;;;;;;3.50;3.20;;;22.50;49.70;;;;;;5023770;28;20449;-86
2021/04/12 21:33:58;;;;;;;4.00;3.60;;;22.50;49.80;;;;;;5084812;28;20442;-86
2021/04/12 21:36:38;;;;;;;3.70;3.40;;;22.50;49.80;;;;;;5102004;28;20440;-86
2021/04/12 21:39:25;;;;;;;4.03;3.63;;;22.50;49.80;;;;;;5081656;28;20424;-85
2021/04/12 21:42:29;;;;;;;3.70;3.40;;;22.50;49.70;;;;;;5085783;28;20439;-86
2021/04/12 21:45:20;;;;;;;4.00;3.60;;;22.50;49.70;;;;;;5039985;28;20433;-86
2021/04/12 21:47:51;;;;;;;3.80;3.50;;;22.50;49.70;;;;;;5079987;28;20471;-86
2021/04/12 21:50:19;;;;;;;4.27;3.43;;;22.50;49.80;;;;;;5067215;28;20440;-85
2021/04/12 21:53:00;;;;;;;3.17;2.87;;;22.50;49.70;;;;;;5081569;28;20428;-84
2021/04/12 21:55:57;;;;;;;5.83;3.30;;;22.50;49.70;;;;;;5063398;28;20949;-85
2021/04/12 21:58:50;;;;;;;4.13;3.73;;;22.50;49.70;;;;;;5062248;28;20420;-84
2021/04/12 22:01:31;;;;;;;3.30;3.10;;;22.50;49.70;;;;;;5052830;28;20455;-84
2021/04/12 22:04:22;;;;;;;3.60;3.30;;;22.50;49.70;;;;;;5063753;28;20421;-84
2021/04/12 22:06:55;;;;;;;3.53;3.20;;;22.40;49.60;;;;;;5046667;28;20516;-84
2021/04/12 22:09:49;;;;;;;4.33;3.93;;;22.40;49.70;;;;;;5072357;28;20413;-84
2021/04/12 22:12:38;;;;;;;3.50;3.20;;;22.50;49.70;;;;;;5043410;28;20517;-84
2021/04/12 22:15:22;;;;;;;4.27;3.27;;;22.50;49.70;;;;;;5055090;28;20544;-84
2021/04/12 22:18:10;;;;;;;3.33;3.03;;;22.40;49.70;;;;;;5050970;28;20432;-84
2021/04/12 22:20:53;;;;;;;4.63;2.90;;;22.40;49.70;;;;;;5061796;28;20481;-84
2021/04/12 22:23:41;;;;;;;3.60;2.97;;;22.40;49.70;;;;;;5059650;28;20503;-84
2021/04/12 22:26:10;;;;;;;3.23;2.90;;;22.40;49.70;;;;;;5039196;28;20923;-84
2021/04/12 22:28:38;;;;;;;3.80;3.50;;;22.40;49.80;;;;;;5054902;28;20540;-85
2021/04/12 22:31:29;;;;;;;3.37;3.07;;;22.40;49.70;;;;;;5059708;28;20848;-85
2021/04/12 22:34:08;;;;;;;3.30;3.00;;;22.50;49.80;;;;;;5045591;28;20992;-84
2021/04/12 22:42:15;;;;;;;4.03;3.63;;;22.50;49.70;;;;;;5073301;28;20396;-85
2021/04/12 22:44:41;;;;;;;3.43;3.13;;;22.50;49.70;;;;;;5072383;28;20404;-89
2021/04/12 22:47:08;;;;;;;3.67;3.00;;;22.50;49.70;;;;;;5069408;28;20213;-88
2021/04/12 22:49:46;;;;;;;4.40;4.00;;;22.50;49.70;;;;;;5073765;28;20166;-89
2021/04/12 22:52:14;;;;;;;3.50;3.07;;;22.50;49.60;;;;;;5070864;28;20414;-89
2021/04/12 22:54:58;;;;;;;2.83;2.57;;;22.50;49.60;;;;;;5072591;28;20436;-85
2021/04/12 22:57:58;;;;;;;3.60;2.90;;;22.50;49.60;;;;;;5067880;28;20445;-85
2021/04/12 23:00:50;;;;;;;3.20;2.90;;;22.50;49.60;;;;;;5055944;28;20447;-85
2021/04/12 23:03:25;;;;;;;3.53;3.23;;;22.50;49.60;;;;;;5063394;28;20478;-85
2021/04/12 23:05:50;;;;;;;3.07;2.77;;;22.50;49.60;;;;;;5048063;28;20425;-85
2021/04/12 23:08:29;;;;;;;3.37;3.07;;;22.50;49.60;;;;;;5051524;28;20446;-85
2021/04/12 23:11:28;;;;;;;4.20;3.10;;;22.50;49.60;;;;;;5074133;28;20179;-85
2021/04/12 23:13:57;;;;;;;2.60;2.40;;;22.50;49.60;;;;;;5048358;28;20424;-85
2021/04/12 23:16:30;;;;;;;3.37;2.77;;;22.50;49.60;;;;;;5070798;28;20413;-85
2021/04/12 23:18:56;;;;;;;3.20;2.90;;;22.50;49.60;;;;;;5044303;28;20489;-85
2021/04/12 23:21:38;;;;;;;3.13;2.83;;;22.50;49.60;;;;;;5044277;28;20910;-85
2021/04/12 23:24:26;;;;;;;3.37;2.90;;;22.50;49.60;;;;;;5045794;28;20179;-85
2021/04/12 23:26:56;;;;;;;3.40;3.10;;;22.60;49.60;;;;;;5062257;28;20480;-85
2021/04/12 23:29:30;;;;;;;3.03;2.83;;;22.50;49.60;;;;;;5063298;28;20394;-84
2021/04/12 23:31:56;;;;;;;3.20;2.90;;;22.50;49.60;;;;;;5063648;28;20390;-85
2021/04/12 23:34:32;;;;;;;3.67;2.80;;;22.50;49.60;;;;;;5067906;28;20859;-86
2021/04/12 23:37:00;;;;;;;4.73;2.63;;;22.60;49.60;;;;;;5066856;28;20500;-86
2021/04/12 23:39:32;;;;;;;3.83;3.40;;;22.60;49.70;;;;;;5066937;28;20469;-87
2021/04/12 23:42:21;;;;;;;3.40;3.03;;;22.60;49.60;;;;;;5066724;28;20413;-86
2021/04/12 23:44:55;;;;;;;3.00;2.70;;;22.60;49.60;;;;;;5065963;28;20421;-86
2021/04/12 23:47:29;;;;;;;3.03;2.70;;;22.60;49.60;;;;;;5066414;28;20949;-86
2021/04/12 23:49:55;;;;;;;2.80;2.50;;;22.60;49.60;;;;;;5057256;28;20414;-86
2021/04/12 23:52:44;;;;;;;3.30;3.00;;;22.60;49.60;;;;;;5049337;28;20420;-86
2021/04/12 23:55:13;;;;;;;3.13;2.70;;;22.60;49.60;;;;;;5067336;28;20182;-86
2021/04/12 23:57:44;;;;;;;3.37;2.97;;;22.50;49.60;;;;;;5049754;28;20417;-86
